createdAt,value
2023-04-25T00:02:16.448Z,100077.19
2023-04-25T00:04:59.473Z,100069.78
2023-04-25T00:07:46.265Z,100066.53
2023-04-25T00:10:26.803Z,100060.13
2023-04-25T00:13:14.363Z,100052.03
2023-04-25T00:15:54.734Z,100062.00
2023-04-25T00:18:41.324Z,100065.31
2023-04-25T00:21:29.331Z,100055.03
2023-04-25T00:24:09.479Z,100045.44
2023-04-25T00:26:56.341Z,100044.09
2023-04-25T00:29:36.423Z,100047.06
2023-04-25T00:32:23.376Z,100043.16
2023-04-25T00:35:04.469Z,100030.63
2023-04-25T00:37:51.285Z,100031.81
2023-04-25T00:40:38.435Z,100031.91
2023-04-25T00:43:18.284Z,100024.91
2023-04-25T00:46:00.815Z,100025.75
2023-04-25T00:48:47.325Z,100026.31
2023-04-25T00:51:34.323Z,100019.03
2023-04-25T00:54:22.282Z,100021.47
2023-04-25T00:57:03.398Z,100024.94
2023-04-25T00:59:51.604Z,100013.31
2023-04-25T01:02:39.322Z,100013.69
2023-04-25T01:05:19.971Z,100004.38
2023-04-25T01:08:07.273Z,100006.19
2023-04-25T01:10:47.407Z,100007.28
2023-04-25T01:13:34.289Z,100010.28
2023-04-25T01:16:14.352Z,99992.66
2023-04-25T01:19:02.230Z,99992.19
2023-04-25T01:21:42.342Z,99995.13
2023-04-25T01:24:29.300Z,99991.59
2023-04-25T01:27:10.320Z,99987.41
2023-04-25T01:29:58.279Z,99979.56
2023-04-25T01:32:40.474Z,99986.59
2023-04-25T01:35:27.157Z,99981.97
2023-04-25T01:38:15.208Z,99981.75
2023-04-25T01:41:03.382Z,99983.59
2023-04-25T01:43:43.246Z,99982.91
2023-04-25T01:46:30.170Z,99961.44
2023-04-25T01:49:12.304Z,99974.53
2023-04-25T01:52:00.240Z,99968.94
2023-04-25T01:54:45.061Z,99956.84
2023-04-25T01:57:32.237Z,99948.47
2023-04-25T02:00:14.358Z,99945.75
2023-04-25T02:03:06.316Z,99958.47
2023-04-25T02:05:47.257Z,99949.78
2023-04-25T02:08:34.158Z,99946.94
2023-04-25T02:11:14.296Z,99930.78
2023-04-25T02:14:10.238Z,99933.63
2023-04-25T02:16:56.440Z,99938.69
2023-04-25T02:19:45.142Z,99938.50
2023-04-25T02:22:25.236Z,99932.63
2023-04-25T02:25:12.145Z,99934.06
2023-04-25T02:27:54.903Z,99923.72
2023-04-25T02:30:43.121Z,99921.44
2023-04-25T02:33:23.309Z,99919.34
2023-04-25T02:36:11.162Z,99908.78
2023-04-25T02:38:51.385Z,99899.00
2023-04-25T02:41:38.152Z,99902.22
2023-04-25T02:44:25.144Z,99902.41
2023-04-25T02:47:05.511Z,99903.81
2023-04-25T02:49:52.082Z,99892.91
2023-04-25T02:52:39.110Z,99892.94
2023-04-25T02:55:34.140Z,99888.97
2023-04-25T02:58:14.641Z,99891.72
2023-04-25T03:01:04.201Z,99896.63
2023-04-25T03:03:44.512Z,99897.97
2023-04-25T03:06:31.055Z,99897.91
2023-04-25T03:09:11.769Z,99889.88
2023-04-25T03:11:59.074Z,99889.50
2023-04-25T03:14:40.611Z,99886.50
2023-04-25T03:17:27.123Z,99886.25
2023-04-25T03:20:09.423Z,99875.34
2023-04-25T03:22:56.029Z,99879.09
2023-04-25T03:25:37.405Z,99880.09
2023-04-25T03:28:24.087Z,99875.84
2023-04-25T03:31:04.529Z,99883.19
2023-04-25T03:33:51.222Z,99876.72
2023-04-25T03:36:31.675Z,99879.31
2023-04-25T03:39:18.034Z,99868.78
2023-04-25T03:42:06.114Z,99878.78
2023-04-25T03:44:46.008Z,99872.53
2023-04-25T03:47:26.373Z,99864.16
2023-04-25T03:50:12.978Z,99866.94
2023-04-25T03:53:00.058Z,99873.59
2023-04-25T03:55:59.112Z,99881.16
2023-04-25T03:58:49.051Z,99869.09
2023-04-25T04:01:32.100Z,99873.34
2023-04-25T04:04:19.206Z,99868.63
2023-04-25T04:06:59.083Z,99873.09
2023-04-25T04:09:48.977Z,99869.25
2023-04-25T04:12:49.950Z,99855.13
2023-04-25T04:15:36.977Z,99867.81
2023-04-25T04:18:17.121Z,99865.56
2023-04-25T04:21:05.963Z,99858.84
2023-04-25T04:23:49.277Z,99852.34
2023-04-25T04:26:36.947Z,99853.66
2023-04-25T04:29:41.975Z,99860.72
2023-04-25T04:32:42.880Z,99855.47
2023-04-25T04:35:29.931Z,99862.66
2023-04-25T04:38:17.933Z,99863.28
2023-04-25T04:41:13.906Z,99853.25
2023-04-25T04:44:22.918Z,99855.03
2023-04-25T04:47:27.944Z,99862.28
2023-04-25T04:50:21.285Z,99858.53
2023-04-25T04:53:33.883Z,99862.50
2023-04-25T04:56:38.954Z,99858.41
2023-04-25T04:59:32.021Z,99850.88
2023-04-25T05:02:37.021Z,99856.09
2023-04-25T05:05:34.085Z,99854.44
2023-04-25T05:08:44.902Z,99850.66
2023-04-25T05:11:45.053Z,99849.34
2023-04-25T05:14:49.918Z,99846.69
2023-04-25T05:17:51.997Z,99846.56
2023-04-25T05:20:50.218Z,99853.09
2023-04-25T05:23:48.953Z,99856.53
2023-04-25T05:26:49.330Z,99858.44
2023-04-25T05:29:42.885Z,99849.59
2023-04-25T05:32:55.477Z,99848.56
2023-04-25T05:35:41.929Z,99845.19
2023-04-25T05:38:28.904Z,99850.66
2023-04-25T05:41:18.018Z,99844.50
2023-04-25T05:44:26.877Z,99844.94
2023-04-25T05:47:29.887Z,99844.19
2023-04-25T05:50:18.323Z,99841.31
2023-04-25T05:53:17.917Z,99834.63
2023-04-25T05:56:13.858Z,99832.66
2023-04-25T05:59:04.881Z,99823.94
2023-04-25T06:01:51.866Z,99825.59
2023-04-25T06:04:33.349Z,99819.56
2023-04-25T06:07:20.901Z,99829.69
2023-04-25T06:10:08.813Z,99828.91
2023-04-25T06:12:55.918Z,99817.81
2023-04-25T06:15:36.962Z,99820.16
2023-04-25T06:18:24.809Z,99813.53
2023-04-25T06:21:04.955Z,99812.16
2023-04-25T06:23:51.994Z,99820.22
2023-04-25T06:26:32.872Z,99819.28
2023-04-25T06:29:19.832Z,99817.69
2023-04-25T06:31:59.958Z,99815.97
2023-04-25T06:34:46.829Z,99810.69
2023-04-25T06:37:26.890Z,99809.22
2023-04-25T06:40:14.337Z,99800.28
2023-04-25T06:42:54.082Z,99801.28
2023-04-25T06:46:07.808Z,99800.81
2023-04-25T06:48:58.790Z,99794.44
2023-04-25T06:51:39.164Z,99797.31
2023-04-25T06:54:25.851Z,99794.91
2023-04-25T06:57:17.162Z,99790.13
2023-04-25T07:00:03.741Z,99809.81
2023-04-25T07:02:44.700Z,99827.00
2023-04-25T07:05:31.772Z,99811.97
2023-04-25T07:08:12.171Z,99808.84
2023-04-25T07:10:59.215Z,99796.47
2023-04-25T07:13:39.147Z,99802.13
2023-04-25T07:16:25.822Z,99791.44
2023-04-25T07:19:06.127Z,99804.38
2023-04-25T07:21:54.189Z,99794.28
2023-04-25T07:24:40.892Z,99796.28
2023-04-25T07:39:49.427Z,99778.97
2023-04-25T07:42:36.301Z,99776.19
2023-04-25T07:45:18.432Z,99785.06
2023-04-25T07:48:06.321Z,99772.34
2023-04-25T07:50:47.459Z,99782.66
2023-04-25T07:53:34.260Z,99772.16
2023-04-25T07:56:19.488Z,99770.78
2023-04-25T07:59:06.273Z,99772.16
2023-04-25T08:01:54.303Z,99761.34
2023-04-25T08:04:35.060Z,99770.19
2023-04-25T08:07:24.260Z,99765.72
2023-04-25T08:10:09.201Z,99773.25
2023-04-25T08:12:57.252Z,99765.03
2023-04-25T08:15:37.722Z,99775.66
2023-04-25T08:18:24.263Z,99780.03
2023-04-25T08:21:11.239Z,99786.50
2023-04-25T08:23:58.787Z,99797.09
2023-04-25T08:26:42.643Z,99778.19
2023-04-25T08:29:33.266Z,99774.31
2023-04-25T08:32:13.633Z,99780.84
2023-04-25T08:35:14.267Z,99782.69
2023-04-25T08:38:09.231Z,99773.06
2023-04-25T08:40:54.953Z,99786.31
2023-04-25T08:43:44.235Z,99779.19
2023-04-25T08:46:26.267Z,99777.63
2023-04-25T08:49:27.221Z,99774.47
2023-04-25T08:52:12.104Z,99777.78
2023-04-25T08:55:03.216Z,99781.44
2023-04-25T08:57:46.412Z,99774.94
2023-04-25T09:00:33.256Z,99789.19
2023-04-25T09:03:13.996Z,99780.16
2023-04-25T09:06:02.215Z,99784.09
2023-04-25T09:08:42.579Z,99781.59
2023-04-25T09:11:29.184Z,99776.41
2023-04-25T09:14:16.618Z,99777.06
2023-04-25T09:17:29.228Z,99760.91
2023-04-25T09:20:14.927Z,99767.47
2023-04-25T09:23:02.164Z,99758.22
2023-04-25T09:25:44.605Z,99767.06
2023-04-25T09:28:38.224Z,99753.88
2023-04-25T09:31:34.177Z,99748.44
2023-04-25T09:34:18.131Z,99757.47
2023-04-25T09:37:10.143Z,99749.31
2023-04-25T09:40:22.120Z,99750.56
2023-04-25T09:43:28.150Z,99747.75
2023-04-25T09:46:15.217Z,99743.50
2023-04-25T09:48:59.493Z,99742.84
2023-04-25T09:51:51.143Z,99739.50
2023-04-25T09:54:34.500Z,99735.81
2023-04-25T09:57:35.197Z,99730.88
2023-04-25T10:00:16.349Z,99737.44
2023-04-25T10:03:05.378Z,99734.16
2023-04-25T10:06:13.092Z,99735.91
2023-04-25T10:09:06.110Z,99718.69
2023-04-25T10:11:56.126Z,99721.09
2023-04-25T10:14:38.247Z,99709.06
2023-04-25T10:17:28.141Z,99709.72
2023-04-25T10:20:14.817Z,99705.00
2023-04-25T10:23:05.210Z,99708.94
2023-04-25T10:25:45.440Z,99710.75
2023-04-25T10:28:33.096Z,99702.28
2023-04-25T10:31:16.548Z,99706.59
2023-04-25T10:34:03.145Z,99703.25
2023-04-25T10:36:43.807Z,99700.13
2023-04-25T10:39:34.105Z,99690.69
2023-04-25T10:42:14.269Z,99692.75
2023-04-25T10:45:13.087Z,99697.56
2023-04-25T10:47:53.317Z,99691.31
2023-04-25T10:50:49.142Z,99679.44
2023-04-25T10:53:39.121Z,99704.31
2023-04-25T10:56:24.425Z,99689.09
2023-04-25T10:59:33.207Z,99690.84
2023-04-25T11:02:16.374Z,99693.25
2023-04-25T11:05:06.050Z,99694.09
2023-04-25T11:08:07.193Z,99689.34
2023-04-25T11:10:56.087Z,99678.59
2023-04-25T11:13:43.142Z,99684.34
2023-04-25T11:16:28.289Z,99691.38
2023-04-25T11:19:15.087Z,99700.28
2023-04-25T11:21:55.162Z,99690.63
2023-04-25T11:24:44.066Z,99694.25
2023-04-25T11:27:25.862Z,99689.13
2023-04-25T11:30:25.233Z,99673.75
2023-04-25T11:33:05.318Z,99686.72
2023-04-25T11:35:52.019Z,99686.53
2023-04-25T11:38:46.081Z,99671.19
2023-04-25T11:41:34.096Z,99673.16
2023-04-25T11:44:21.066Z,99663.19
2023-04-25T11:47:01.451Z,99664.47
2023-04-25T11:49:48.119Z,99667.50
2023-04-25T11:52:44.064Z,99663.97
2023-04-25T11:55:26.132Z,99668.97
2023-04-25T11:58:20.967Z,99677.13
2023-04-25T12:01:07.985Z,99672.69
2023-04-25T12:03:54.318Z,99664.97
2023-04-25T12:06:47.115Z,99665.44
2023-04-25T12:09:45.991Z,99647.84
2023-04-25T12:12:33.750Z,99656.47
2023-04-25T12:15:32.021Z,99647.53
2023-04-25T12:18:12.523Z,99633.41
2023-04-25T12:20:58.972Z,99634.28
2023-04-25T12:23:40.409Z,99632.78
2023-04-25T12:26:28.048Z,99633.97
2023-04-25T12:29:29.627Z,99633.16
2023-04-25T12:32:18.982Z,99636.50
2023-04-25T12:34:59.473Z,99632.03
2023-04-25T12:37:45.996Z,99628.56
2023-04-25T12:40:33.043Z,99624.38
2023-04-25T12:43:13.035Z,99612.63
2023-04-25T12:46:01.987Z,99616.72
2023-04-25T12:48:49.100Z,99622.44
2023-04-25T12:51:29.705Z,99609.84
2023-04-25T12:54:17.951Z,99600.63
2023-04-25T12:56:58.499Z,99597.47
2023-04-25T12:59:44.943Z,99605.78
2023-04-25T13:02:25.644Z,99601.94
2023-04-25T13:05:12.979Z,99604.03
2023-04-25T13:07:53.526Z,99599.81
2023-04-25T13:10:40.969Z,99617.41
2023-04-25T13:13:21.426Z,99611.94
2023-04-25T13:16:07.984Z,99601.22
2023-04-25T13:18:48.288Z,99608.09
2023-04-25T13:21:34.900Z,99595.59
2023-04-25T13:24:15.308Z,99591.81
2023-04-25T13:27:01.871Z,99591.50
2023-04-25T13:29:42.708Z,99588.84
2023-04-25T13:32:29.907Z,99605.13
2023-04-25T13:35:19.059Z,99605.31
2023-04-25T13:37:58.861Z,99593.91
2023-04-25T13:40:46.671Z,99597.75
2023-04-25T13:43:30.893Z,99585.97
2023-04-25T13:46:25.208Z,99585.00
2023-04-25T13:49:17.007Z,99588.63
2023-04-25T13:51:57.264Z,99583.81
2023-04-25T13:54:43.861Z,99585.16
2023-04-25T13:57:24.395Z,99586.63
2023-04-25T14:00:16.856Z,99579.16
2023-04-25T14:03:03.955Z,99583.63
2023-04-25T14:05:45.049Z,99576.47
2023-04-25T14:08:31.873Z,99578.44
2023-04-25T14:11:18.839Z,99581.47
2023-04-25T14:14:05.978Z,99589.66
2023-04-25T14:16:46.220Z,99596.72
2023-04-25T14:19:32.826Z,99595.66
2023-04-25T14:22:13.500Z,99601.78
2023-04-25T14:24:59.777Z,99600.44
2023-04-25T14:27:39.971Z,99583.28
2023-04-25T14:30:28.817Z,99615.75
2023-04-25T14:33:09.115Z,99595.94
2023-04-25T14:35:55.866Z,99587.81
2023-04-25T14:38:35.901Z,99575.41
2023-04-25T14:41:22.808Z,99583.47
2023-04-25T14:44:09.760Z,99589.94
2023-04-25T14:46:52.728Z,99571.25
2023-04-25T14:49:39.840Z,99563.06
2023-04-25T14:52:20.239Z,99571.66
2023-04-25T14:55:07.833Z,99569.78
2023-04-25T14:57:48.221Z,99578.50
2023-04-25T15:00:34.858Z,99585.34
2023-04-25T15:03:17.259Z,99584.22
2023-04-25T15:06:04.869Z,99590.41
2023-04-25T15:08:45.183Z,99598.59
2023-04-25T15:11:32.862Z,99586.28
2023-04-25T15:14:19.925Z,99577.78
2023-04-25T15:16:59.815Z,99581.50
2023-04-25T15:19:41.051Z,99585.66
2023-04-25T15:22:27.823Z,99582.88
2023-04-25T15:25:09.707Z,99573.69
2023-04-25T15:27:56.773Z,99572.56
2023-04-25T15:30:37.545Z,99566.28
2023-04-25T15:33:24.757Z,99556.94
2023-04-25T15:36:06.158Z,99560.50
2023-04-25T15:38:52.767Z,99549.25
2023-04-25T15:41:33.210Z,99554.44
2023-04-25T15:44:19.738Z,99548.63
2023-04-25T15:47:00.330Z,99532.94
2023-04-25T15:49:46.770Z,99529.13
2023-04-25T15:52:27.581Z,99518.22
2023-04-25T15:55:16.721Z,99501.75
2023-04-25T15:58:03.778Z,99516.06
2023-04-25T16:00:50.679Z,99508.13
2023-04-25T16:03:38.884Z,99514.25
2023-04-25T16:06:25.777Z,99510.66
2023-04-25T16:09:06.762Z,99501.13
2023-04-25T16:11:53.748Z,99487.69
2023-04-25T16:14:34.402Z,99481.09
2023-04-25T16:17:20.719Z,99479.84
2023-04-25T16:20:19.416Z,99482.16
2023-04-25T16:23:05.675Z,99488.00
2023-04-25T16:25:46.248Z,99490.84
2023-04-25T16:28:32.864Z,99498.06
2023-04-25T16:31:19.770Z,99491.59
2023-04-25T16:33:59.810Z,99490.41
2023-04-25T16:36:46.706Z,99500.91
2023-04-25T16:39:26.758Z,99503.31
2023-04-25T16:42:13.693Z,99499.94
2023-04-25T16:45:00.652Z,99518.53
2023-04-25T16:47:47.730Z,99517.06
2023-04-25T16:50:34.695Z,99522.78
2023-04-25T16:53:21.689Z,99532.03
2023-04-25T16:56:01.783Z,99537.38
2023-04-25T16:58:48.686Z,99543.09
2023-04-25T17:01:29.462Z,99544.19
2023-04-25T17:04:16.857Z,99555.88
2023-04-25T17:06:57.597Z,99553.91
2023-04-25T17:09:45.664Z,99559.75
2023-04-25T17:12:32.587Z,99566.97
2023-04-25T17:15:13.411Z,99570.25
2023-04-25T17:18:00.707Z,99573.09
2023-04-25T17:20:41.114Z,99587.69
2023-04-25T17:23:27.719Z,99590.69
2023-04-25T17:26:14.608Z,99598.44
2023-04-25T17:28:55.172Z,99599.13
2023-04-25T17:31:43.602Z,99611.88
2023-04-25T17:34:23.749Z,99615.09
2023-04-25T17:37:10.658Z,99634.13
2023-04-25T17:40:04.622Z,99621.81
2023-04-25T17:42:52.592Z,99629.06
2023-04-25T17:45:34.920Z,99630.53
2023-04-25T17:48:21.618Z,99631.06
2023-04-25T17:51:08.556Z,99624.56
2023-04-25T17:53:55.654Z,99639.41
2023-04-25T17:56:35.700Z,99641.91
2023-04-25T17:59:22.590Z,99644.50
2023-04-25T18:02:10.745Z,99644.13
2023-04-25T18:08:14.531Z,99644.25
2023-04-25T18:11:01.602Z,99649.06
2023-04-25T18:13:42.097Z,99645.13
2023-04-25T18:16:28.582Z,99640.13
2023-04-25T18:19:15.510Z,99643.91
2023-04-25T18:22:07.562Z,99648.88
2023-04-25T18:24:57.585Z,99646.53
2023-04-25T18:27:38.105Z,99649.31
2023-04-25T18:30:24.636Z,99658.00
2023-04-25T18:33:11.582Z,99662.72
2023-04-25T18:38:41.500Z,99657.03
2023-04-25T18:41:52.054Z,99662.47
2023-04-25T18:44:40.525Z,99658.19
2023-04-25T18:47:20.975Z,99660.47
2023-04-25T18:50:07.521Z,99658.00
2023-04-25T18:52:48.005Z,99664.34
2023-04-25T18:55:34.550Z,99663.53
2023-04-25T18:58:14.864Z,99671.47
2023-04-25T19:01:01.544Z,99663.88
2023-04-25T19:03:48.953Z,99663.06
2023-04-25T19:06:33.983Z,99660.94
2023-04-25T19:09:20.446Z,99671.75
2023-04-25T19:12:07.619Z,99677.81
2023-04-25T19:14:48.617Z,99689.06
2023-04-25T19:17:35.519Z,99700.84
2023-04-25T19:20:16.493Z,99704.31
2023-04-25T19:23:03.859Z,99721.25
2023-04-25T19:25:43.898Z,99724.00
2023-04-25T19:41:23.390Z,99730.47
2023-04-25T19:44:08.546Z,99731.81
2023-04-25T19:46:56.431Z,99730.72
2023-04-25T19:49:46.349Z,99720.88
2023-04-25T19:52:33.355Z,99724.28
2023-04-25T19:55:24.613Z,99717.28
2023-04-25T19:58:04.521Z,99702.19
2023-04-25T20:00:51.399Z,99703.28
2023-04-25T20:03:38.838Z,99695.84
2023-04-25T20:06:21.749Z,99702.19
2023-04-25T20:09:08.267Z,99699.34
2023-04-25T20:11:55.358Z,99699.75
2023-04-25T20:14:35.558Z,99701.84
2023-04-25T20:17:25.385Z,99696.84
2023-04-25T20:20:06.545Z,99694.72
2023-04-25T20:22:53.322Z,99697.91
2023-04-25T20:25:33.362Z,99693.53
2023-04-25T20:28:20.325Z,99686.28
2023-04-25T20:31:00.842Z,99685.63
2023-04-25T20:33:50.536Z,99685.63
2023-04-25T20:36:35.652Z,99682.78
2023-04-25T20:39:22.349Z,99683.97
2023-04-25T20:42:03.200Z,99671.19
2023-04-25T20:44:51.310Z,99671.56
2023-04-25T20:47:31.575Z,99665.22
2023-04-25T20:50:18.299Z,99657.91
2023-04-25T20:52:58.398Z,99657.00
2023-04-25T20:55:45.266Z,99648.72
2023-04-25T20:58:32.234Z,99654.72
2023-04-25T21:01:19.374Z,99646.81
2023-04-25T21:04:00.681Z,99644.72
2023-04-25T21:06:47.295Z,99650.88
2023-04-25T21:09:27.401Z,99648.44
2023-04-25T21:12:14.301Z,99643.63
2023-04-25T21:14:54.430Z,99652.31
2023-04-25T21:17:41.304Z,99640.53
2023-04-25T21:20:29.269Z,99651.13
2023-04-25T21:23:09.597Z,99647.53
2023-04-25T21:25:58.238Z,99648.44
2023-04-25T21:28:45.284Z,99647.34
2023-04-25T21:31:26.315Z,99644.50
2023-04-25T21:34:14.338Z,99642.53
2023-04-25T21:37:01.286Z,99640.81
2023-04-25T21:39:41.626Z,99644.97
2023-04-25T21:42:28.296Z,99639.69
2023-04-25T21:45:10.217Z,99638.16
2023-04-25T21:47:57.395Z,99645.31
2023-04-25T21:50:37.699Z,99651.25
2023-04-25T21:53:24.208Z,99655.41
2023-04-25T21:56:04.710Z,99656.34
2023-04-25T21:58:51.346Z,99663.84
2023-04-25T22:01:31.817Z,99666.03
2023-04-25T22:04:18.414Z,99668.78
2023-04-25T22:06:58.604Z,99678.81
2023-04-25T22:09:54.386Z,99666.94
2023-04-25T22:12:35.795Z,99668.16
2023-04-25T22:15:25.225Z,99680.66
2023-04-25T22:18:13.381Z,99669.72
2023-04-25T22:21:01.205Z,99663.16
2023-04-25T22:23:41.559Z,99662.47
2023-04-25T22:26:28.176Z,99666.13
2023-04-25T22:29:08.565Z,99675.38
2023-04-25T22:31:55.244Z,99656.84
2023-04-25T22:34:42.205Z,99656.03
2023-04-25T22:37:29.103Z,99657.25
2023-04-25T22:40:23.152Z,99660.25
2023-04-25T22:43:10.112Z,99660.53
2023-04-25T22:45:50.439Z,99638.31
2023-04-25T22:48:38.102Z,99652.06
2023-04-25T22:51:18.806Z,99654.94
2023-04-25T22:54:06.128Z,99651.72
2023-04-25T22:56:53.101Z,99651.41
2023-04-25T22:59:43.146Z,99645.91
2023-04-25T23:02:23.406Z,99648.97
2023-04-25T23:05:13.226Z,99638.19
2023-04-25T23:07:53.339Z,99654.78
2023-04-25T23:10:40.137Z,99651.53
2023-04-25T23:13:27.168Z,99650.50
2023-04-25T23:16:18.119Z,99642.25
2023-04-25T23:19:15.242Z,99655.19
2023-04-25T23:22:02.140Z,99647.13
2023-04-25T23:24:46.088Z,99654.00
2023-04-25T23:27:33.107Z,99654.91
2023-04-25T23:30:21.110Z,99642.72
2023-04-25T23:33:01.618Z,99641.50
2023-04-25T23:35:51.049Z,99642.81
2023-04-25T23:38:32.352Z,99642.69
2023-04-25T23:41:19.045Z,99640.69
2023-04-25T23:43:59.470Z,99637.59
2023-04-25T23:46:46.087Z,99640.84
2023-04-25T23:49:34.126Z,99631.97
2023-04-25T23:52:14.199Z,99646.00
2023-04-25T23:55:02.111Z,99630.69
2023-04-25T23:57:47.188Z,99634.78
